sensor_id;sensor_type;location;lat;lon;timestamp;P1;durP1;ratioP1;P2;durP2;ratioP2
32236;SDS011;18726;44.732;10.550;2023-05-23T00:01:40;25.73;;;20.75;;
32236;SDS011;18726;44.732;10.550;2023-05-23T00:04:45;21.38;;;19.08;;
32236;SDS011;18726;44.732;10.550;2023-05-23T00:07:48;20.95;;;18.83;;
32236;SDS011;18726;44.732;10.550;2023-05-23T00:10:52;21.55;;;19.23;;
32236;SDS011;18726;44.732;10.550;2023-05-23T00:13:56;27.10;;;20.20;;
32236;SDS011;18726;44.732;10.550;2023-05-23T00:17:03;25.70;;;19.17;;
32236;SDS011;18726;44.732;10.550;2023-05-23T00:20:07;21.60;;;19.23;;
32236;SDS011;18726;44.732;10.550;2023-05-23T00:23:13;26.25;;;20.38;;
32236;SDS011;18726;44.732;10.550;2023-05-23T00:26:21;20.30;;;17.73;;
32236;SDS011;18726;44.732;10.550;2023-05-23T00:29:26;20.40;;;18.02;;
32236;SDS011;18726;44.732;10.550;2023-05-23T00:32:30;21.05;;;18.98;;
32236;SDS011;18726;44.732;10.550;2023-05-23T00:35:34;27.27;;;20.13;;
32236;SDS011;18726;44.732;10.550;2023-05-23T00:38:38;24.67;;;18.52;;
32236;SDS011;18726;44.732;10.550;2023-05-23T00:41:46;26.50;;;18.77;;
32236;SDS011;18726;44.732;10.550;2023-05-23T00:44:51;29.10;;;19.23;;
32236;SDS011;18726;44.732;10.550;2023-05-23T00:47:55;19.38;;;17.40;;
32236;SDS011;18726;44.732;10.550;2023-05-23T00:51:01;19.52;;;15.20;;
32236;SDS011;18726;44.732;10.550;2023-05-23T00:54:05;20.52;;;18.35;;
32236;SDS011;18726;44.732;10.550;2023-05-23T00:57:09;23.65;;;18.83;;
32236;SDS011;18726;44.732;10.550;2023-05-23T01:00:13;18.90;;;16.92;;
32236;SDS011;18726;44.732;10.550;2023-05-23T01:03:17;19.92;;;17.77;;
32236;SDS011;18726;44.732;10.550;2023-05-23T01:06:22;22.10;;;17.02;;
32236;SDS011;18726;44.732;10.550;2023-05-23T01:09:26;19.13;;;17.13;;
32236;SDS011;18726;44.732;10.550;2023-05-23T01:29:07;20.88;;;15.48;;
32236;SDS011;18726;44.732;10.550;2023-05-23T01:32:17;15.60;;;13.95;;
32236;SDS011;18726;44.732;10.550;2023-05-23T01:35:25;18.10;;;16.08;;
32236;SDS011;18726;44.732;10.550;2023-05-23T01:38:30;22.23;;;18.95;;
32236;SDS011;18726;44.732;10.550;2023-05-23T01:41:34;22.13;;;19.13;;
32236;SDS011;18726;44.732;10.550;2023-05-23T01:44:38;16.65;;;14.40;;
32236;SDS011;18726;44.732;10.550;2023-05-23T01:47:42;16.75;;;15.05;;
32236;SDS011;18726;44.732;10.550;2023-05-23T01:50:47;15.90;;;14.45;;
32236;SDS011;18726;44.732;10.550;2023-05-23T01:53:51;23.27;;;16.88;;
32236;SDS011;18726;44.732;10.550;2023-05-23T01:56:56;20.80;;;18.13;;
32236;SDS011;18726;44.732;10.550;2023-05-23T02:00:00;20.73;;;18.48;;
32236;SDS011;18726;44.732;10.550;2023-05-23T02:03:05;29.13;;;20.30;;
32236;SDS011;18726;44.732;10.550;2023-05-23T02:06:09;27.50;;;21.70;;
32236;SDS011;18726;44.732;10.550;2023-05-23T02:09:13;27.98;;;21.15;;
32236;SDS011;18726;44.732;10.550;2023-05-23T02:12:17;22.60;;;20.42;;
32236;SDS011;18726;44.732;10.550;2023-05-23T02:15:21;24.67;;;22.02;;
32236;SDS011;18726;44.732;10.550;2023-05-23T02:18:24;24.88;;;21.10;;
32236;SDS011;18726;44.732;10.550;2023-05-23T02:21:31;23.35;;;20.88;;
32236;SDS011;18726;44.732;10.550;2023-05-23T02:24:35;28.00;;;20.85;;
32236;SDS011;18726;44.732;10.550;2023-05-23T02:27:38;29.40;;;21.73;;
32236;SDS011;18726;44.732;10.550;2023-05-23T02:30:42;25.17;;;22.40;;
32236;SDS011;18726;44.732;10.550;2023-05-23T02:33:45;26.73;;;21.15;;
32236;SDS011;18726;44.732;10.550;2023-05-23T02:36:49;28.67;;;22.05;;
32236;SDS011;18726;44.732;10.550;2023-05-23T02:39:54;25.02;;;22.23;;
32236;SDS011;18726;44.732;10.550;2023-05-23T02:42:59;27.02;;;20.15;;
32236;SDS011;18726;44.732;10.550;2023-05-23T02:46:03;35.10;;;20.92;;
32236;SDS011;18726;44.732;10.550;2023-05-23T02:49:07;25.08;;;21.20;;
32236;SDS011;18726;44.732;10.550;2023-05-23T02:52:10;24.20;;;20.80;;
32236;SDS011;18726;44.732;10.550;2023-05-23T02:55:14;25.25;;;20.75;;
32236;SDS011;18726;44.732;10.550;2023-05-23T02:58:21;23.40;;;21.02;;
32236;SDS011;18726;44.732;10.550;2023-05-23T03:01:26;25.67;;;21.73;;
32236;SDS011;18726;44.732;10.550;2023-05-23T03:04:30;24.98;;;22.45;;
32236;SDS011;18726;44.732;10.550;2023-05-23T03:07:34;25.40;;;22.63;;
32236;SDS011;18726;44.732;10.550;2023-05-23T03:10:38;27.05;;;22.95;;
32236;SDS011;18726;44.732;10.550;2023-05-23T03:13:42;25.85;;;22.75;;
32236;SDS011;18726;44.732;10.550;2023-05-23T03:16:46;24.20;;;20.65;;
32236;SDS011;18726;44.732;10.550;2023-05-23T03:19:49;25.17;;;22.20;;
32236;SDS011;18726;44.732;10.550;2023-05-23T03:22:55;22.63;;;20.48;;
32236;SDS011;18726;44.732;10.550;2023-05-23T03:26:00;24.77;;;21.92;;
32236;SDS011;18726;44.732;10.550;2023-05-23T03:29:04;30.10;;;22.77;;
32236;SDS011;18726;44.732;10.550;2023-05-23T03:32:08;24.73;;;21.75;;
32236;SDS011;18726;44.732;10.550;2023-05-23T03:35:11;26.00;;;21.02;;
32236;SDS011;18726;44.732;10.550;2023-05-23T03:38:15;25.75;;;22.38;;
32236;SDS011;18726;44.732;10.550;2023-05-23T03:41:19;24.00;;;21.42;;
32236;SDS011;18726;44.732;10.550;2023-05-23T03:44:24;22.50;;;20.10;;
32236;SDS011;18726;44.732;10.550;2023-05-23T03:47:27;22.77;;;20.35;;
32236;SDS011;18726;44.732;10.550;2023-05-23T03:50:33;25.20;;;21.27;;
32236;SDS011;18726;44.732;10.550;2023-05-23T03:53:37;29.63;;;21.20;;
32236;SDS011;18726;44.732;10.550;2023-05-23T03:56:41;24.50;;;21.98;;
32236;SDS011;18726;44.732;10.550;2023-05-23T03:59:45;25.27;;;22.55;;
32236;SDS011;18726;44.732;10.550;2023-05-23T04:02:49;22.80;;;20.40;;
32236;SDS011;18726;44.732;10.550;2023-05-23T04:05:55;25.75;;;21.50;;
32236;SDS011;18726;44.732;10.550;2023-05-23T04:09:00;29.55;;;21.52;;
32236;SDS011;18726;44.732;10.550;2023-05-23T04:12:06;25.75;;;22.02;;
32236;SDS011;18726;44.732;10.550;2023-05-23T04:15:12;22.23;;;17.60;;
32236;SDS011;18726;44.732;10.550;2023-05-23T04:18:28;18.45;;;16.25;;
32236;SDS011;18726;44.732;10.550;2023-05-23T04:21:32;18.77;;;16.88;;
32236;SDS011;18726;44.732;10.550;2023-05-23T04:24:42;20.75;;;16.38;;
32236;SDS011;18726;44.732;10.550;2023-05-23T04:27:46;16.35;;;14.20;;
32236;SDS011;18726;44.732;10.550;2023-05-23T04:30:51;19.52;;;17.48;;
32236;SDS011;18726;44.732;10.550;2023-05-23T04:33:59;18.65;;;15.45;;
32236;SDS011;18726;44.732;10.550;2023-05-23T04:37:03;21.27;;;16.50;;
32236;SDS011;18726;44.732;10.550;2023-05-23T04:40:07;16.55;;;14.90;;
32236;SDS011;18726;44.732;10.550;2023-05-23T04:43:31;19.10;;;14.88;;
32236;SDS011;18726;44.732;10.550;2023-05-23T04:46:51;16.15;;;14.52;;
32236;SDS011;18726;44.732;10.550;2023-05-23T04:50:14;16.45;;;14.45;;
32236;SDS011;18726;44.732;10.550;2023-05-23T04:53:19;16.73;;;15.10;;
32236;SDS011;18726;44.732;10.550;2023-05-23T04:56:23;16.70;;;15.00;;
32236;SDS011;18726;44.732;10.550;2023-05-23T04:59:31;17.08;;;14.88;;
32236;SDS011;18726;44.732;10.550;2023-05-23T05:02:35;16.83;;;15.07;;
32236;SDS011;18726;44.732;10.550;2023-05-23T05:05:40;15.20;;;13.75;;
32236;SDS011;18726;44.732;10.550;2023-05-23T05:08:44;17.40;;;12.52;;
32236;SDS011;18726;44.732;10.550;2023-05-23T05:11:49;19.10;;;13.60;;
32236;SDS011;18726;44.732;10.550;2023-05-23T05:14:53;17.30;;;13.43;;
32236;SDS011;18726;44.732;10.550;2023-05-23T05:17:57;16.10;;;12.93;;
32236;SDS011;18726;44.732;10.550;2023-05-23T05:21:00;12.85;;;11.10;;
32236;SDS011;18726;44.732;10.550;2023-05-23T05:24:04;13.30;;;11.88;;
32236;SDS011;18726;44.732;10.550;2023-05-23T05:27:08;15.93;;;11.48;;
32236;SDS011;18726;44.732;10.550;2023-05-23T05:30:14;16.02;;;12.90;;
32236;SDS011;18726;44.732;10.550;2023-05-23T05:33:26;15.07;;;12.40;;
32236;SDS011;18726;44.732;10.550;2023-05-23T05:36:40;13.85;;;12.48;;
32236;SDS011;18726;44.732;10.550;2023-05-23T05:39:51;18.42;;;12.82;;
32236;SDS011;18726;44.732;10.550;2023-05-23T05:42:57;14.63;;;12.15;;
32236;SDS011;18726;44.732;10.550;2023-05-23T05:46:01;14.85;;;12.30;;
32236;SDS011;18726;44.732;10.550;2023-05-23T05:49:05;13.13;;;10.48;;
32236;SDS011;18726;44.732;10.550;2023-05-23T05:52:09;17.65;;;12.15;;
32236;SDS011;18726;44.732;10.550;2023-05-23T05:55:13;18.10;;;9.68;;
32236;SDS011;18726;44.732;10.550;2023-05-23T05:58:22;12.30;;;11.05;;
32236;SDS011;18726;44.732;10.550;2023-05-23T06:01:31;10.30;;;8.65;;
32236;SDS011;18726;44.732;10.550;2023-05-23T06:04:37;10.20;;;9.10;;
32236;SDS011;18726;44.732;10.550;2023-05-23T06:07:41;11.10;;;8.35;;
32236;SDS011;18726;44.732;10.550;2023-05-23T06:10:45;18.27;;;9.68;;
32236;SDS011;18726;44.732;10.550;2023-05-23T06:13:49;10.40;;;8.38;;
32236;SDS011;18726;44.732;10.550;2023-05-23T06:16:52;11.90;;;8.68;;
32236;SDS011;18726;44.732;10.550;2023-05-23T06:19:57;9.38;;;8.48;;
32236;SDS011;18726;44.732;10.550;2023-05-23T06:23:00;8.57;;;7.47;;
32236;SDS011;18726;44.732;10.550;2023-05-23T06:26:07;8.45;;;7.60;;
32236;SDS011;18726;44.732;10.550;2023-05-23T06:29:13;8.70;;;7.90;;
32236;SDS011;18726;44.732;10.550;2023-05-23T06:32:16;8.95;;;8.00;;
32236;SDS011;18726;44.732;10.550;2023-05-23T06:35:19;11.18;;;7.93;;
32236;SDS011;18726;44.732;10.550;2023-05-23T06:38:25;11.48;;;8.13;;
32236;SDS011;18726;44.732;10.550;2023-05-23T06:41:29;9.50;;;8.45;;
32236;SDS011;18726;44.732;10.550;2023-05-23T06:44:33;12.82;;;8.25;;
32236;SDS011;18726;44.732;10.550;2023-05-23T06:47:39;8.80;;;7.90;;
32236;SDS011;18726;44.732;10.550;2023-05-23T06:50:46;9.50;;;7.28;;
32236;SDS011;18726;44.732;10.550;2023-05-23T06:53:50;8.55;;;7.72;;
32236;SDS011;18726;44.732;10.550;2023-05-23T06:56:54;8.27;;;7.47;;
32236;SDS011;18726;44.732;10.550;2023-05-23T06:59:58;8.57;;;7.50;;
32236;SDS011;18726;44.732;10.550;2023-05-23T07:03:02;10.98;;;7.45;;
32236;SDS011;18726;44.732;10.550;2023-05-23T07:06:07;9.30;;;7.38;;
32236;SDS011;18726;44.732;10.550;2023-05-23T07:09:10;9.52;;;6.72;;
32236;SDS011;18726;44.732;10.550;2023-05-23T07:12:15;10.73;;;8.32;;
32236;SDS011;18726;44.732;10.550;2023-05-23T07:15:21;7.68;;;6.72;;
32236;SDS011;18726;44.732;10.550;2023-05-23T07:18:33;10.43;;;8.45;;
32236;SDS011;18726;44.732;10.550;2023-05-23T07:21:36;10.20;;;8.60;;
32236;SDS011;18726;44.732;10.550;2023-05-23T07:24:41;9.43;;;7.68;;
32236;SDS011;18726;44.732;10.550;2023-05-23T07:27:45;13.30;;;7.57;;
32236;SDS011;18726;44.732;10.550;2023-05-23T07:30:49;8.43;;;7.40;;
32236;SDS011;18726;44.732;10.550;2023-05-23T07:33:53;7.93;;;7.05;;
32236;SDS011;18726;44.732;10.550;2023-05-23T07:37:02;9.77;;;6.63;;
32236;SDS011;18726;44.732;10.550;2023-05-23T07:40:12;6.85;;;6.22;;
32236;SDS011;18726;44.732;10.550;2023-05-23T07:43:16;9.05;;;7.25;;
32236;SDS011;18726;44.732;10.550;2023-05-23T07:46:20;7.95;;;6.88;;
32236;SDS011;18726;44.732;10.550;2023-05-23T07:49:25;7.07;;;6.35;;
32236;SDS011;18726;44.732;10.550;2023-05-23T07:52:29;8.63;;;7.80;;
32236;SDS011;18726;44.732;10.550;2023-05-23T07:55:35;9.55;;;7.80;;
32236;SDS011;18726;44.732;10.550;2023-05-23T07:58:39;9.77;;;7.22;;
32236;SDS011;18726;44.732;10.550;2023-05-23T08:01:44;15.80;;;8.98;;
32236;SDS011;18726;44.732;10.550;2023-05-23T08:04:53;9.05;;;8.25;;
32236;SDS011;18726;44.732;10.550;2023-05-23T08:07:58;9.38;;;8.18;;
32236;SDS011;18726;44.732;10.550;2023-05-23T08:11:01;9.27;;;8.32;;
32236;SDS011;18726;44.732;10.550;2023-05-23T08:14:15;11.07;;;9.43;;
32236;SDS011;18726;44.732;10.550;2023-05-23T08:17:28;9.35;;;8.55;;
32236;SDS011;18726;44.732;10.550;2023-05-23T08:20:32;11.70;;;9.05;;
32236;SDS011;18726;44.732;10.550;2023-05-23T08:23:36;10.98;;;9.13;;
32236;SDS011;18726;44.732;10.550;2023-05-23T08:26:40;10.50;;;9.52;;
32236;SDS011;18726;44.732;10.550;2023-05-23T08:29:47;12.63;;;10.32;;
32236;SDS011;18726;44.732;10.550;2023-05-23T08:32:52;12.07;;;9.02;;
32236;SDS011;18726;44.732;10.550;2023-05-23T08:35:56;20.60;;;10.82;;
32236;SDS011;18726;44.732;10.550;2023-05-23T08:39:00;14.05;;;9.80;;
32236;SDS011;18726;44.732;10.550;2023-05-23T08:42:07;10.52;;;8.15;;
32236;SDS011;18726;44.732;10.550;2023-05-23T08:45:11;13.40;;;9.45;;
32236;SDS011;18726;44.732;10.550;2023-05-23T08:48:15;14.18;;;10.00;;
32236;SDS011;18726;44.732;10.550;2023-05-23T08:51:26;11.73;;;9.32;;
32236;SDS011;18726;44.732;10.550;2023-05-23T08:54:32;11.23;;;10.10;;
32236;SDS011;18726;44.732;10.550;2023-05-23T08:57:37;13.65;;;9.95;;
32236;SDS011;18726;44.732;10.550;2023-05-23T09:01:00;12.68;;;9.70;;
32236;SDS011;18726;44.732;10.550;2023-05-23T09:04:05;12.15;;;10.77;;
32236;SDS011;18726;44.732;10.550;2023-05-23T09:07:27;13.38;;;10.30;;
32236;SDS011;18726;44.732;10.550;2023-05-23T09:10:31;14.55;;;9.48;;
32236;SDS011;18726;44.732;10.550;2023-05-23T09:13:36;12.05;;;9.65;;
32236;SDS011;18726;44.732;10.550;2023-05-23T09:16:47;11.35;;;9.75;;
32236;SDS011;18726;44.732;10.550;2023-05-23T09:19:53;14.77;;;9.80;;
32236;SDS011;18726;44.732;10.550;2023-05-23T09:23:14;11.00;;;10.00;;
32236;SDS011;18726;44.732;10.550;2023-05-23T09:26:19;14.60;;;10.25;;
32236;SDS011;18726;44.732;10.550;2023-05-23T09:29:23;18.90;;;10.23;;
32236;SDS011;18726;44.732;10.550;2023-05-23T09:32:27;12.32;;;11.23;;
32236;SDS011;18726;44.732;10.550;2023-05-23T09:35:31;15.52;;;11.07;;
32236;SDS011;18726;44.732;10.550;2023-05-23T09:38:39;18.77;;;12.98;;
32236;SDS011;18726;44.732;10.550;2023-05-23T09:41:49;12.30;;;11.02;;
32236;SDS011;18726;44.732;10.550;2023-05-23T09:44:53;17.20;;;12.43;;
32236;SDS011;18726;44.732;10.550;2023-05-23T09:47:57;13.65;;;11.70;;
32236;SDS011;18726;44.732;10.550;2023-05-23T09:51:04;16.42;;;11.95;;
32236;SDS011;18726;44.732;10.550;2023-05-23T09:54:09;13.45;;;10.77;;
32236;SDS011;18726;44.732;10.550;2023-05-23T09:57:13;15.88;;;12.30;;
32236;SDS011;18726;44.732;10.550;2023-05-23T10:00:19;18.58;;;11.68;;
32236;SDS011;18726;44.732;10.550;2023-05-23T10:03:29;12.35;;;11.07;;
32236;SDS011;18726;44.732;10.550;2023-05-23T10:06:38;13.90;;;12.57;;
32236;SDS011;18726;44.732;10.550;2023-05-23T10:09:50;16.30;;;12.00;;
32236;SDS011;18726;44.732;10.550;2023-05-23T10:12:58;20.95;;;13.50;;
32236;SDS011;18726;44.732;10.550;2023-05-23T10:22:27;12.60;;;11.25;;
32236;SDS011;18726;44.732;10.550;2023-05-23T10:25:31;14.18;;;10.90;;
32236;SDS011;18726;44.732;10.550;2023-05-23T10:28:34;12.52;;;10.93;;
32236;SDS011;18726;44.732;10.550;2023-05-23T10:31:38;11.88;;;10.50;;
32236;SDS011;18726;44.732;10.550;2023-05-23T10:38:37;12.05;;;10.85;;
32236;SDS011;18726;44.732;10.550;2023-05-23T10:41:44;15.88;;;10.75;;
32236;SDS011;18726;44.732;10.550;2023-05-23T10:45:12;16.42;;;11.40;;
32236;SDS011;18726;44.732;10.550;2023-05-23T10:48:34;13.50;;;10.75;;
32236;SDS011;18726;44.732;10.550;2023-05-23T10:51:48;13.63;;;11.15;;
32236;SDS011;18726;44.732;10.550;2023-05-23T10:54:53;22.00;;;9.93;;
32236;SDS011;18726;44.732;10.550;2023-05-23T11:01:25;12.32;;;11.02;;
32236;SDS011;18726;44.732;10.550;2023-05-23T11:04:28;11.52;;;10.52;;
32236;SDS011;18726;44.732;10.550;2023-05-23T11:07:32;11.93;;;10.73;;
32236;SDS011;18726;44.732;10.550;2023-05-23T11:14:03;13.90;;;10.10;;
32236;SDS011;18726;44.732;10.550;2023-05-23T11:17:16;13.98;;;11.32;;
32236;SDS011;18726;44.732;10.550;2023-05-23T11:20:24;11.45;;;10.13;;
32236;SDS011;18726;44.732;10.550;2023-05-23T11:23:39;9.55;;;8.55;;
32236;SDS011;18726;44.732;10.550;2023-05-23T11:26:54;12.95;;;10.35;;
32236;SDS011;18726;44.732;10.550;2023-05-23T11:30:05;11.68;;;10.52;;
32236;SDS011;18726;44.732;10.550;2023-05-23T11:33:12;10.68;;;9.57;;
32236;SDS011;18726;44.732;10.550;2023-05-23T11:36:17;9.60;;;8.27;;
32236;SDS011;18726;44.732;10.550;2023-05-23T11:39:21;16.58;;;8.82;;
32236;SDS011;18726;44.732;10.550;2023-05-23T11:42:25;10.23;;;9.13;;
32236;SDS011;18726;44.732;10.550;2023-05-23T11:45:29;10.80;;;7.82;;
32236;SDS011;18726;44.732;10.550;2023-05-23T11:48:36;9.43;;;8.23;;
32236;SDS011;18726;44.732;10.550;2023-05-23T11:51:41;11.00;;;9.13;;
32236;SDS011;18726;44.732;10.550;2023-05-23T11:54:45;11.25;;;9.75;;
32236;SDS011;18726;44.732;10.550;2023-05-23T11:57:49;13.82;;;9.60;;
32236;SDS011;18726;44.732;10.550;2023-05-23T12:00:57;10.23;;;9.25;;
32236;SDS011;18726;44.732;10.550;2023-05-23T12:04:21;10.05;;;9.13;;
32236;SDS011;18726;44.732;10.550;2023-05-23T12:07:28;16.50;;;9.98;;
32236;SDS011;18726;44.732;10.550;2023-05-23T12:10:35;10.65;;;8.57;;
32236;SDS011;18726;44.732;10.550;2023-05-23T12:13:39;11.75;;;9.45;;
32236;SDS011;18726;44.732;10.550;2023-05-23T12:16:44;13.75;;;8.65;;
32236;SDS011;18726;44.732;10.550;2023-05-23T12:19:49;10.60;;;7.97;;
32236;SDS011;18726;44.732;10.550;2023-05-23T12:22:55;11.77;;;8.82;;
32236;SDS011;18726;44.732;10.550;2023-05-23T12:26:00;9.70;;;8.80;;
32236;SDS011;18726;44.732;10.550;2023-05-23T12:29:06;11.38;;;9.30;;
32236;SDS011;18726;44.732;10.550;2023-05-23T12:32:10;15.18;;;9.05;;
32236;SDS011;18726;44.732;10.550;2023-05-23T12:35:14;9.48;;;8.55;;
32236;SDS011;18726;44.732;10.550;2023-05-23T12:38:18;11.15;;;9.65;;
32236;SDS011;18726;44.732;10.550;2023-05-23T12:41:26;10.13;;;8.95;;
32236;SDS011;18726;44.732;10.550;2023-05-23T12:44:29;14.50;;;9.32;;
32236;SDS011;18726;44.732;10.550;2023-05-23T12:47:33;10.10;;;8.57;;
32236;SDS011;18726;44.732;10.550;2023-05-23T12:50:37;16.23;;;7.90;;
32236;SDS011;18726;44.732;10.550;2023-05-23T12:53:41;13.07;;;9.93;;
32236;SDS011;18726;44.732;10.550;2023-05-23T12:56:45;9.98;;;8.68;;
32236;SDS011;18726;44.732;10.550;2023-05-23T12:59:49;9.40;;;8.43;;
32236;SDS011;18726;44.732;10.550;2023-05-23T13:02:52;16.98;;;10.15;;
32236;SDS011;18726;44.732;10.550;2023-05-23T13:05:56;12.57;;;9.80;;
32236;SDS011;18726;44.732;10.550;2023-05-23T13:08:59;13.25;;;10.88;;
32236;SDS011;18726;44.732;10.550;2023-05-23T13:12:04;15.38;;;10.27;;
32236;SDS011;18726;44.732;10.550;2023-05-23T13:15:08;12.75;;;9.40;;
32236;SDS011;18726;44.732;10.550;2023-05-23T13:18:12;10.98;;;9.88;;
32236;SDS011;18726;44.732;10.550;2023-05-23T13:21:16;10.27;;;9.38;;
32236;SDS011;18726;44.732;10.550;2023-05-23T13:24:20;11.75;;;10.50;;
32236;SDS011;18726;44.732;10.550;2023-05-23T13:27:24;10.52;;;8.75;;
32236;SDS011;18726;44.732;10.550;2023-05-23T13:30:27;10.77;;;9.68;;
32236;SDS011;18726;44.732;10.550;2023-05-23T13:33:31;14.73;;;9.80;;
32236;SDS011;18726;44.732;10.550;2023-05-23T13:36:35;16.80;;;9.77;;
32236;SDS011;18726;44.732;10.550;2023-05-23T13:39:39;10.68;;;9.25;;
32236;SDS011;18726;44.732;10.550;2023-05-23T13:42:43;11.18;;;10.07;;
32236;SDS011;18726;44.732;10.550;2023-05-23T13:45:47;14.13;;;9.77;;
32236;SDS011;18726;44.732;10.550;2023-05-23T13:48:51;10.27;;;9.27;;
32236;SDS011;18726;44.732;10.550;2023-05-23T13:51:54;10.52;;;9.50;;
32236;SDS011;18726;44.732;10.550;2023-05-23T13:54:58;9.88;;;8.88;;
32236;SDS011;18726;44.732;10.550;2023-05-23T13:58:03;9.20;;;8.25;;
32236;SDS011;18726;44.732;10.550;2023-05-23T14:01:07;11.52;;;9.68;;
32236;SDS011;18726;44.732;10.550;2023-05-23T14:04:11;15.65;;;10.30;;
32236;SDS011;18726;44.732;10.550;2023-05-23T14:07:18;10.63;;;9.15;;
32236;SDS011;18726;44.732;10.550;2023-05-23T14:10:21;10.90;;;9.27;;
32236;SDS011;18726;44.732;10.550;2023-05-23T14:13:25;10.13;;;8.60;;
32236;SDS011;18726;44.732;10.550;2023-05-23T14:16:29;9.88;;;8.88;;
32236;SDS011;18726;44.732;10.550;2023-05-23T14:19:32;11.07;;;8.32;;
32236;SDS011;18726;44.732;10.550;2023-05-23T14:22:36;10.48;;;9.32;;
32236;SDS011;18726;44.732;10.550;2023-05-23T14:25:40;12.52;;;9.13;;
32236;SDS011;18726;44.732;10.550;2023-05-23T14:28:44;10.93;;;8.52;;
32236;SDS011;18726;44.732;10.550;2023-05-23T14:31:47;12.20;;;7.68;;
32236;SDS011;18726;44.732;10.550;2023-05-23T14:34:51;12.27;;;9.70;;
32236;SDS011;18726;44.732;10.550;2023-05-23T14:37:55;16.02;;;8.88;;
32236;SDS011;18726;44.732;10.550;2023-05-23T14:40:59;9.20;;;8.25;;
32236;SDS011;18726;44.732;10.550;2023-05-23T14:44:02;13.20;;;8.68;;
32236;SDS011;18726;44.732;10.550;2023-05-23T14:47:06;14.93;;;8.27;;
32236;SDS011;18726;44.732;10.550;2023-05-23T14:50:09;10.55;;;8.95;;
32236;SDS011;18726;44.732;10.550;2023-05-23T14:53:13;14.20;;;9.30;;
32236;SDS011;18726;44.732;10.550;2023-05-23T14:56:17;9.70;;;7.60;;
32236;SDS011;18726;44.732;10.550;2023-05-23T14:59:20;12.25;;;8.90;;
32236;SDS011;18726;44.732;10.550;2023-05-23T15:02:24;11.25;;;8.77;;
32236;SDS011;18726;44.732;10.550;2023-05-23T15:05:28;9.63;;;8.05;;
32236;SDS011;18726;44.732;10.550;2023-05-23T15:08:32;9.57;;;8.40;;
32236;SDS011;18726;44.732;10.550;2023-05-23T15:11:36;10.93;;;9.82;;
32236;SDS011;18726;44.732;10.550;2023-05-23T15:14:40;9.85;;;8.55;;
32236;SDS011;18726;44.732;10.550;2023-05-23T15:17:45;8.55;;;7.47;;
32236;SDS011;18726;44.732;10.550;2023-05-23T15:20:49;8.70;;;7.80;;
32236;SDS011;18726;44.732;10.550;2023-05-23T15:23:53;9.25;;;8.38;;
32236;SDS011;18726;44.732;10.550;2023-05-23T15:26:57;9.65;;;8.38;;
32236;SDS011;18726;44.732;10.550;2023-05-23T15:30:01;9.40;;;8.52;;
32236;SDS011;18726;44.732;10.550;2023-05-23T15:33:05;8.50;;;7.60;;
32236;SDS011;18726;44.732;10.550;2023-05-23T15:36:09;11.68;;;8.13;;
32236;SDS011;18726;44.732;10.550;2023-05-23T15:39:15;17.60;;;8.85;;
32236;SDS011;18726;44.732;10.550;2023-05-23T15:42:19;8.98;;;8.05;;
32236;SDS011;18726;44.732;10.550;2023-05-23T15:45:22;8.40;;;7.57;;
32236;SDS011;18726;44.732;10.550;2023-05-23T15:48:26;10.13;;;8.75;;
32236;SDS011;18726;44.732;10.550;2023-05-23T15:51:29;13.32;;;8.52;;
32236;SDS011;18726;44.732;10.550;2023-05-23T15:54:34;12.73;;;8.88;;
32236;SDS011;18726;44.732;10.550;2023-05-23T15:57:38;10.30;;;7.75;;
32236;SDS011;18726;44.732;10.550;2023-05-23T16:00:41;13.57;;;9.07;;
32236;SDS011;18726;44.732;10.550;2023-05-23T16:03:45;9.88;;;8.85;;
32236;SDS011;18726;44.732;10.550;2023-05-23T16:06:49;10.18;;;9.18;;
32236;SDS011;18726;44.732;10.550;2023-05-23T16:09:53;13.88;;;9.40;;
32236;SDS011;18726;44.732;10.550;2023-05-23T16:12:57;9.52;;;8.02;;
32236;SDS011;18726;44.732;10.550;2023-05-23T16:16:01;11.98;;;8.48;;
32236;SDS011;18726;44.732;10.550;2023-05-23T16:19:06;9.00;;;8.00;;
32236;SDS011;18726;44.732;10.550;2023-05-23T16:22:10;12.95;;;9.25;;
32236;SDS011;18726;44.732;10.550;2023-05-23T16:25:13;9.98;;;8.90;;
32236;SDS011;18726;44.732;10.550;2023-05-23T16:28:17;12.20;;;8.80;;
32236;SDS011;18726;44.732;10.550;2023-05-23T16:31:25;10.77;;;9.32;;
32236;SDS011;18726;44.732;10.550;2023-05-23T16:34:30;11.48;;;10.38;;
32236;SDS011;18726;44.732;10.550;2023-05-23T16:37:33;9.77;;;8.82;;
32236;SDS011;18726;44.732;10.550;2023-05-23T16:40:37;9.75;;;8.10;;
32236;SDS011;18726;44.732;10.550;2023-05-23T16:43:40;15.63;;;9.32;;
32236;SDS011;18726;44.732;10.550;2023-05-23T16:46:44;9.70;;;7.97;;
32236;SDS011;18726;44.732;10.550;2023-05-23T16:49:48;10.63;;;7.88;;
32236;SDS011;18726;44.732;10.550;2023-05-23T16:52:52;9.82;;;7.75;;
32236;SDS011;18726;44.732;10.550;2023-05-23T16:55:57;10.70;;;8.23;;
32236;SDS011;18726;44.732;10.550;2023-05-23T16:59:01;8.68;;;7.95;;
32236;SDS011;18726;44.732;10.550;2023-05-23T17:02:04;9.10;;;8.20;;
32236;SDS011;18726;44.732;10.550;2023-05-23T17:05:08;9.95;;;8.57;;
32236;SDS011;18726;44.732;10.550;2023-05-23T17:08:12;12.77;;;8.95;;
32236;SDS011;18726;44.732;10.550;2023-05-23T17:11:17;8.80;;;7.82;;
32236;SDS011;18726;44.732;10.550;2023-05-23T17:14:20;9.45;;;8.45;;
32236;SDS011;18726;44.732;10.550;2023-05-23T17:17:24;10.73;;;8.07;;
32236;SDS011;18726;44.732;10.550;2023-05-23T17:20:27;10.57;;;8.80;;
32236;SDS011;18726;44.732;10.550;2023-05-23T17:23:30;12.10;;;9.23;;
32236;SDS011;18726;44.732;10.550;2023-05-23T17:26:34;9.70;;;8.60;;
32236;SDS011;18726;44.732;10.550;2023-05-23T17:29:38;13.88;;;10.05;;
32236;SDS011;18726;44.732;10.550;2023-05-23T17:32:41;12.15;;;9.48;;
32236;SDS011;18726;44.732;10.550;2023-05-23T17:35:45;14.70;;;9.60;;
32236;SDS011;18726;44.732;10.550;2023-05-23T17:38:49;15.27;;;10.65;;
32236;SDS011;18726;44.732;10.550;2023-05-23T17:41:55;12.63;;;9.25;;
32236;SDS011;18726;44.732;10.550;2023-05-23T17:44:58;12.02;;;8.93;;
32236;SDS011;18726;44.732;10.550;2023-05-23T17:48:02;16.33;;;10.10;;
32236;SDS011;18726;44.732;10.550;2023-05-23T17:51:06;14.23;;;10.02;;
32236;SDS011;18726;44.732;10.550;2023-05-23T17:54:09;24.83;;;10.50;;
32236;SDS011;18726;44.732;10.550;2023-05-23T17:57:13;14.05;;;9.63;;
32236;SDS011;18726;44.732;10.550;2023-05-23T18:00:18;11.75;;;9.93;;
32236;SDS011;18726;44.732;10.550;2023-05-23T18:03:22;9.57;;;8.57;;
32236;SDS011;18726;44.732;10.550;2023-05-23T18:06:26;11.88;;;8.85;;
32236;SDS011;18726;44.732;10.550;2023-05-23T18:09:30;13.45;;;9.77;;
32236;SDS011;18726;44.732;10.550;2023-05-23T18:12:34;9.90;;;8.85;;
32236;SDS011;18726;44.732;10.550;2023-05-23T18:15:39;15.18;;;8.45;;
32236;SDS011;18726;44.732;10.550;2023-05-23T18:18:42;14.80;;;9.77;;
32236;SDS011;18726;44.732;10.550;2023-05-23T18:21:46;10.70;;;9.02;;
32236;SDS011;18726;44.732;10.550;2023-05-23T18:24:50;11.27;;;9.13;;
32236;SDS011;18726;44.732;10.550;2023-05-23T18:27:57;19.92;;;10.23;;
32236;SDS011;18726;44.732;10.550;2023-05-23T18:31:01;14.85;;;9.68;;
32236;SDS011;18726;44.732;10.550;2023-05-23T18:34:05;10.73;;;9.57;;